Time;durP1;ratioP1;P1;durP2;ratioP2;P2;SDS_P1;SDS_P2;PMS_P1;PMS_P2;Temp;Humidity;BMP_temperature;BMP_pressure;BME280_temperature;BME280_humidity;BME280_pressure;Samples;Min_cycle;Max_cycle;Signal;HPM_P1;HPM_P2
2022/09/08 00:00:44;;;;;;;5.10;4.00;;;19.40;99.90;;;;;;5081984;28;20418;-45
2022/09/08 00:03:13;;;;;;;8.03;3.87;;;19.40;99.90;;;;;;5082240;28;20444;-51
2022/09/08 00:05:45;;;;;;;6.23;3.53;;;19.30;99.90;;;;;;5082086;28;20481;-49
2022/09/08 00:08:12;;;;;;;8.40;3.10;;;19.30;99.90;;;;;;5082098;28;20427;-48
2022/09/08 00:10:41;;;;;;;4.67;4.10;;;19.30;99.90;;;;;;5082447;28;20465;-48
2022/09/08 00:13:08;;;;;;;4.10;3.70;;;19.20;99.90;;;;;;5082123;28;20473;-48
2022/09/08 00:15:37;;;;;;;3.80;3.40;;;19.20;99.90;;;;;;5080174;28;20549;-53
2022/09/08 00:18:05;;;;;;;6.33;4.00;;;19.20;99.90;;;;;;5080780;28;20442;-53
2022/09/08 00:20:31;;;;;;;6.40;3.50;;;19.20;99.90;;;;;;5080881;28;20466;-51
2022/09/08 00:22:58;;;;;;;4.47;3.70;;;19.20;99.90;;;;;;5080981;28;20431;-45
2022/09/08 00:25:26;;;;;;;4.67;3.27;;;19.20;99.90;;;;;;5080940;28;20478;-50
2022/09/08 00:27:54;;;;;;;7.03;4.20;;;19.20;99.90;;;;;;5080815;28;20458;-45
2022/09/08 00:30:21;;;;;;;3.20;2.90;;;19.20;99.90;;;;;;5081341;28;20453;-49
2022/09/08 00:32:47;;;;;;;4.83;3.97;;;19.20;99.90;;;;;;5081033;28;20475;-53
2022/09/08 00:35:18;;;;;;;7.07;3.23;;;19.10;99.90;;;;;;5081979;28;20455;-48
2022/09/08 00:37:45;;;;;;;5.17;3.70;;;19.10;99.90;;;;;;5082011;28;20466;-53
2022/09/08 00:40:12;;;;;;;9.50;4.13;;;19.10;99.90;;;;;;5081313;28;20453;-48
2022/09/08 00:42:39;;;;;;;11.33;4.20;;;19.10;99.90;;;;;;5081381;28;20469;-51
2022/09/08 00:45:09;;;;;;;3.87;3.47;;;19.10;99.90;;;;;;5081254;28;20462;-51
2022/09/08 00:47:39;;;;;;;5.97;3.90;;;19.00;99.90;;;;;;5081838;28;20446;-49
2022/09/08 00:50:09;;;;;;;7.37;3.83;;;19.00;99.90;;;;;;5081457;28;20449;-47
2022/09/08 00:52:41;;;;;;;3.37;3.07;;;19.00;99.90;;;;;;5081624;28;20442;-49
2022/09/08 00:55:09;;;;;;;5.47;4.13;;;18.90;99.90;;;;;;5081948;28;20474;-52
2022/09/08 00:57:36;;;;;;;7.80;3.90;;;19.00;99.90;;;;;;5081144;28;20536;-47
2022/09/08 01:00:06;;;;;;;4.40;3.70;;;18.90;99.90;;;;;;5081285;28;20462;-49
2022/09/08 01:02:34;;;;;;;4.37;3.00;;;18.90;99.90;;;;;;5081373;28;20522;-45
2022/09/08 01:05:05;;;;;;;5.13;4.20;;;18.90;99.90;;;;;;5081297;28;20493;-48
2022/09/08 01:13:35;;;;;;;3.53;3.20;;;18.80;99.90;;;;;;5082126;28;20464;-54
2022/09/08 01:16:02;;;;;;;7.17;3.13;;;18.80;99.90;;;;;;5081539;28;20469;-50
2022/09/08 01:18:30;;;;;;;4.97;3.07;;;18.70;99.90;;;;;;5081200;28;20480;-50
2022/09/08 01:21:06;;;;;;;3.60;3.00;;;18.70;99.90;;;;;;5081542;28;20438;-52
2022/09/08 01:23:57;;;;;;;5.30;2.80;;;18.70;99.90;;;;;;5081170;28;20427;-54
2022/09/08 01:26:45;;;;;;;4.47;3.17;;;18.70;99.90;;;;;;5080886;28;20430;-48
2022/09/08 01:29:14;;;;;;;5.87;2.80;;;18.70;99.90;;;;;;5077706;28;20493;-51
2022/09/08 01:31:44;;;;;;;3.27;2.97;;;18.60;99.90;;;;;;5080839;28;20449;-52
2022/09/08 01:34:11;;;;;;;4.10;3.50;;;18.60;99.90;;;;;;5080741;28;20481;-46
2022/09/08 01:36:38;;;;;;;6.93;3.83;;;18.70;99.90;;;;;;5080905;28;20446;-54
2022/09/08 01:39:04;;;;;;;5.53;3.53;;;18.70;99.90;;;;;;5080602;28;20549;-52
2022/09/08 01:41:31;;;;;;;4.90;3.43;;;18.70;99.90;;;;;;5080875;28;20450;-52
2022/09/08 01:43:58;;;;;;;4.73;2.67;;;18.70;99.90;;;;;;5080344;28;20467;-47
2022/09/08 01:46:27;;;;;;;5.90;3.10;;;18.60;99.90;;;;;;5080830;28;20423;-53
2022/09/08 01:48:53;;;;;;;4.10;2.60;;;18.60;99.90;;;;;;5080902;28;20453;-47
2022/09/08 01:51:22;;;;;;;6.63;2.70;;;18.50;99.90;;;;;;5079762;28;20477;-51
2022/09/08 01:53:49;;;;;;;4.10;2.70;;;18.60;99.90;;;;;;5080521;28;20450;-46
2022/09/08 01:56:16;;;;;;;2.90;2.50;;;18.60;99.90;;;;;;5079111;28;20470;-46
2022/09/08 01:58:42;;;;;;;5.97;3.30;;;18.60;99.90;;;;;;5080219;28;20453;-51
2022/09/08 02:01:09;;;;;;;5.30;3.20;;;18.60;99.90;;;;;;5080243;28;20470;-50
2022/09/08 02:03:37;;;;;;;3.60;2.80;;;18.60;99.90;;;;;;5080386;28;20457;-47
2022/09/08 02:06:04;;;;;;;9.00;3.37;;;18.60;99.90;;;;;;5080603;28;20802;-48
2022/09/08 02:08:31;;;;;;;6.17;3.57;;;18.50;99.90;;;;;;5080457;28;20517;-47
2022/09/08 02:11:00;;;;;;;5.27;2.93;;;18.60;99.90;;;;;;5080016;28;20474;-46
2022/09/08 02:13:27;;;;;;;3.37;2.90;;;18.50;99.90;;;;;;5080364;28;20449;-47
2022/09/08 02:15:59;;;;;;;8.80;2.93;;;18.50;99.90;;;;;;5080356;28;20452;-47
2022/09/08 02:18:28;;;;;;;4.50;3.03;;;18.50;99.90;;;;;;5077665;28;20462;-51
2022/09/08 02:21:07;;;;;;;9.43;3.87;;;18.50;99.90;;;;;;5077655;28;20776;-53
2022/09/08 02:23:34;;;;;;;3.53;2.80;;;18.50;99.90;;;;;;5077618;28;20465;-47
2022/09/08 02:26:00;;;;;;;7.70;3.00;;;18.40;99.90;;;;;;5077087;28;20489;-51
2022/09/08 02:28:27;;;;;;;3.63;2.50;;;18.40;99.90;;;;;;5077136;28;20474;-51
2022/09/08 02:30:58;;;;;;;6.57;3.20;;;18.40;99.90;;;;;;5077835;28;20449;-49
2022/09/08 02:33:26;;;;;;;5.93;2.47;;;18.30;99.90;;;;;;5077816;28;20453;-48
2022/09/08 02:35:53;;;;;;;7.50;3.50;;;18.40;99.90;;;;;;5077537;28;20810;-54
2022/09/08 02:38:21;;;;;;;5.63;3.00;;;18.30;99.90;;;;;;5077474;28;20461;-50
2022/09/08 02:40:48;;;;;;;3.37;2.77;;;18.30;99.90;;;;;;5077271;28;20458;-48
2022/09/08 02:43:15;;;;;;;5.63;2.30;;;18.30;99.90;;;;;;5077672;28;20474;-49
2022/09/08 02:45:42;;;;;;;3.60;2.60;;;18.30;99.90;;;;;;5077307;28;20486;-52
2022/09/08 02:48:09;;;;;;;4.93;2.70;;;18.30;99.90;;;;;;5077261;28;20438;-53
2022/09/08 02:50:36;;;;;;;3.60;2.50;;;18.30;99.90;;;;;;5077230;28;20462;-50
2022/09/08 02:53:03;;;;;;;4.20;2.80;;;18.30;99.90;;;;;;5078151;28;20484;-48
2022/09/08 02:55:31;;;;;;;2.77;2.33;;;18.30;99.90;;;;;;5077368;28;20453;-46
2022/09/08 02:57:57;;;;;;;4.07;3.10;;;18.30;99.90;;;;;;5077407;28;20446;-44
2022/09/08 03:00:30;;;;;;;3.43;2.43;;;18.20;99.90;;;;;;5077352;28;20741;-49
2022/09/08 03:02:57;;;;;;;3.23;2.40;;;18.30;99.90;;;;;;5077257;28;20470;-51
2022/09/08 03:05:24;;;;;;;4.20;2.70;;;18.20;99.90;;;;;;5076832;28;20516;-50
2022/09/08 03:07:51;;;;;;;5.43;2.90;;;18.10;99.90;;;;;;5078914;28;20474;-53
2022/09/08 03:10:20;;;;;;;5.60;2.90;;;18.10;99.90;;;;;;5081776;28;20457;-46
2022/09/08 03:12:48;;;;;;;2.60;2.20;;;18.10;99.90;;;;;;5081395;28;20442;-53
2022/09/08 03:15:14;;;;;;;4.67;2.70;;;18.10;99.90;;;;;;5081746;28;20438;-42
2022/09/08 03:17:41;;;;;;;7.70;3.00;;;18.10;99.90;;;;;;5081188;28;20442;-50
2022/09/08 03:20:09;;;;;;;4.60;2.70;;;18.10;99.90;;;;;;5081564;28;20503;-47
2022/09/08 03:22:36;;;;;;;2.47;2.27;;;18.00;99.90;;;;;;5080838;28;20472;-51
2022/09/08 03:25:04;;;;;;;4.23;2.50;;;18.00;99.90;;;;;;5081571;28;20493;-45
2022/09/08 03:27:30;;;;;;;4.73;2.70;;;18.00;99.90;;;;;;5080836;28;20442;-49
2022/09/08 03:29:59;;;;;;;4.00;2.70;;;18.00;99.90;;;;;;5081170;28;20480;-50
2022/09/08 03:32:26;;;;;;;9.53;2.73;;;18.00;99.90;;;;;;5081174;28;20781;-51
2022/09/08 03:34:53;;;;;;;6.73;2.57;;;18.00;99.90;;;;;;5080825;28;20515;-46
2022/09/08 03:37:20;;;;;;;3.23;2.43;;;17.90;99.90;;;;;;5081289;28;20431;-48
2022/09/08 03:39:47;;;;;;;7.00;3.93;;;17.90;99.90;;;;;;5081671;28;20461;-48
2022/09/08 03:42:13;;;;;;;3.60;2.43;;;17.90;99.90;;;;;;5081074;28;20545;-48
2022/09/08 03:44:42;;;;;;;4.33;3.00;;;17.80;99.90;;;;;;5080976;28;20466;-48
2022/09/08 03:47:10;;;;;;;3.70;2.30;;;17.80;99.90;;;;;;5081078;28;20466;-51
2022/09/08 03:49:37;;;;;;;3.80;3.23;;;17.80;99.90;;;;;;5081560;28;20740;-50
2022/09/08 03:52:04;;;;;;;6.00;3.30;;;17.80;99.90;;;;;;5080626;28;20469;-48
2022/09/08 03:54:48;;;;;;;7.60;3.00;;;17.80;99.90;;;;;;5081072;28;20446;-45
2022/09/08 03:57:17;;;;;;;7.37;3.07;;;17.80;99.90;;;;;;5080694;28;20477;-44
2022/09/08 03:59:44;;;;;;;5.60;2.57;;;17.70;99.90;;;;;;5080857;28;20533;-45
2022/09/08 04:02:13;;;;;;;2.73;2.47;;;17.70;99.90;;;;;;5080630;28;20478;-47
2022/09/08 04:04:40;;;;;;;3.70;2.40;;;17.70;99.90;;;;;;5080939;28;20506;-46
2022/09/08 04:07:07;;;;;;;5.40;3.50;;;17.60;99.90;;;;;;5080847;28;20799;-50
2022/09/08 04:09:34;;;;;;;4.50;2.70;;;17.60;99.90;;;;;;5080590;28;20518;-48
2022/09/08 04:12:01;;;;;;;5.93;3.33;;;17.50;99.90;;;;;;5080884;28;20458;-50
2022/09/08 04:14:28;;;;;;;3.80;2.80;;;17.50;99.90;;;;;;5080857;28;20470;-48
2022/09/08 04:16:55;;;;;;;4.13;2.33;;;17.50;99.90;;;;;;5081116;28;20930;-47
2022/09/08 04:19:23;;;;;;;6.33;3.00;;;17.40;99.90;;;;;;5079522;28;20438;-50
2022/09/08 04:21:50;;;;;;;6.23;3.20;;;17.40;99.90;;;;;;5080357;28;20453;-47
2022/09/08 04:24:18;;;;;;;5.50;2.80;;;17.40;99.90;;;;;;5080960;28;20457;-44
2022/09/08 04:26:45;;;;;;;3.90;2.70;;;17.40;99.90;;;;;;5080619;28;20478;-48
2022/09/08 04:29:11;;;;;;;4.10;2.87;;;17.40;99.90;;;;;;5080201;28;20529;-45
2022/09/08 04:31:38;;;;;;;8.73;3.07;;;17.30;99.90;;;;;;5080551;28;20466;-50
2022/09/08 04:34:05;;;;;;;4.93;2.73;;;17.30;99.90;;;;;;5080374;28;20449;-47
2022/09/08 04:36:33;;;;;;;4.10;2.40;;;17.30;99.90;;;;;;5080440;28;20462;-49
2022/09/08 04:39:01;;;;;;;9.97;2.97;;;17.30;99.90;;;;;;5080373;28;20446;-47
2022/09/08 04:41:30;;;;;;;3.20;2.27;;;17.30;99.90;;;;;;5080435;28;20469;-46
2022/09/08 04:44:00;;;;;;;3.50;2.80;;;17.30;99.90;;;;;;5079829;28;20509;-45
2022/09/08 04:46:27;;;;;;;5.40;2.87;;;17.30;99.90;;;;;;5080100;28;20524;-52
2022/09/08 04:48:55;;;;;;;4.50;3.17;;;17.30;99.90;;;;;;5080321;28;20446;-45
2022/09/08 04:51:22;;;;;;;5.70;2.40;;;17.30;99.90;;;;;;5080393;28;20446;-47
2022/09/08 04:53:52;;;;;;;11.77;3.50;;;17.30;99.90;;;;;;5080592;28;20477;-47
2022/09/08 04:56:20;;;;;;;5.37;3.70;;;17.30;99.90;;;;;;5080898;28;20447;-44
2022/09/08 04:58:47;;;;;;;9.50;3.07;;;17.40;99.90;;;;;;5080726;28;20479;-50
2022/09/08 05:01:19;;;;;;;7.97;3.30;;;17.40;99.90;;;;;;5079650;28;20515;-41
2022/09/08 05:03:46;;;;;;;4.00;3.60;;;17.40;99.90;;;;;;5080429;28;20783;-47
2022/09/08 05:06:15;;;;;;;4.70;2.43;;;17.40;99.90;;;;;;5080263;28;20486;-50
2022/09/08 05:08:42;;;;;;;4.50;2.70;;;17.50;99.90;;;;;;5080844;28;20442;-54
2022/09/08 05:11:11;;;;;;;6.07;3.40;;;17.50;99.90;;;;;;5080892;28;20450;-50
2022/09/08 05:13:38;;;;;;;5.17;2.90;;;17.50;99.90;;;;;;5081282;28;20466;-52
2022/09/08 05:16:06;;;;;;;4.77;3.07;;;17.50;99.90;;;;;;5079410;28;20458;-48
2022/09/08 05:18:33;;;;;;;3.77;2.40;;;17.40;99.90;;;;;;5079291;28;20465;-43
2022/09/08 05:21:00;;;;;;;3.23;2.80;;;17.40;99.90;;;;;;5083311;28;20475;-40
2022/09/08 05:23:27;;;;;;;4.80;2.50;;;17.50;99.90;;;;;;5083554;28;20449;-44
2022/09/08 05:25:59;;;;;;;9.93;3.47;;;17.50;99.90;;;;;;5083189;28;20478;-47
2022/09/08 05:28:29;;;;;;;6.00;3.03;;;17.50;99.90;;;;;;5082749;28;20451;-48
2022/09/08 05:30:56;;;;;;;4.73;3.43;;;17.50;99.90;;;;;;5075214;28;20427;-51
2022/09/08 05:33:24;;;;;;;3.97;2.83;;;17.60;99.90;;;;;;5075781;28;20427;-46
2022/09/08 05:35:51;;;;;;;6.00;4.23;;;17.60;99.90;;;;;;5075649;28;20923;-47
2022/09/08 05:38:18;;;;;;;9.10;2.80;;;17.60;99.90;;;;;;5075940;28;20466;-52
2022/09/08 05:40:44;;;;;;;3.30;2.57;;;17.60;99.90;;;;;;5075978;28;20453;-49
2022/09/08 05:43:11;;;;;;;4.77;3.43;;;17.60;99.90;;;;;;5075652;28;20800;-46
2022/09/08 05:45:44;;;;;;;6.70;3.80;;;17.60;99.90;;;;;;5075357;28;20486;-49
2022/09/08 05:48:11;;;;;;;5.70;3.43;;;17.70;99.90;;;;;;5075536;28;20434;-49
2022/09/08 05:50:37;;;;;;;5.70;3.30;;;17.70;99.90;;;;;;5075844;28;20906;-49
2022/09/08 05:53:05;;;;;;;5.13;2.90;;;17.60;99.90;;;;;;5075670;28;20469;-48
2022/09/08 05:55:31;;;;;;;9.07;3.77;;;17.70;99.90;;;;;;5075558;28;20908;-47
2022/09/08 05:57:58;;;;;;;3.17;2.70;;;17.70;99.90;;;;;;5075754;28;20454;-50
2022/09/08 06:00:25;;;;;;;4.13;2.80;;;17.70;99.90;;;;;;5075174;28;20474;-48
2022/09/08 06:02:54;;;;;;;4.87;3.13;;;17.70;99.90;;;;;;5077539;28;20433;-49
2022/09/08 06:05:22;;;;;;;8.50;3.53;;;17.70;99.90;;;;;;5103971;28;20499;-47
2022/09/08 06:07:50;;;;;;;7.80;3.10;;;17.70;99.90;;;;;;5095960;28;20702;-40
2022/09/08 06:10:18;;;;;;;4.00;3.60;;;17.70;99.90;;;;;;5115551;28;20445;-50
2022/09/08 06:12:45;;;;;;;7.73;3.60;;;17.70;99.90;;;;;;5116466;28;20448;-42
2022/09/08 06:15:12;;;;;;;5.97;4.53;;;17.80;99.90;;;;;;5116080;28;20438;-43
2022/09/08 06:17:39;;;;;;;6.70;3.73;;;17.80;99.90;;;;;;5115695;28;20461;-41
2022/09/08 06:20:09;;;;;;;6.17;3.20;;;17.80;99.90;;;;;;5115485;28;20454;-43
2022/09/08 06:22:36;;;;;;;5.03;3.47;;;17.90;99.90;;;;;;5115929;28;20479;-46
2022/09/08 06:25:03;;;;;;;4.10;3.60;;;17.90;99.90;;;;;;5116303;28;20442;-51
2022/09/08 06:27:43;;;;;;;5.70;3.63;;;17.90;99.90;;;;;;5115804;28;20499;-51
2022/09/08 06:30:12;;;;;;;3.70;2.77;;;18.00;99.90;;;;;;5115861;28;20472;-49
2022/09/08 06:32:44;;;;;;;7.07;3.63;;;18.00;99.90;;;;;;5115777;28;20441;-45
2022/09/08 06:35:17;;;;;;;7.43;3.50;;;18.00;99.90;;;;;;5104457;28;20437;-44
2022/09/08 06:37:48;;;;;;;7.30;4.03;;;18.10;99.90;;;;;;5095537;28;20417;-44
2022/09/08 06:40:22;;;;;;;9.20;3.83;;;18.00;99.90;;;;;;5094892;28;20473;-49
2022/09/08 06:42:56;;;;;;;5.67;3.60;;;18.10;99.90;;;;;;5095020;28;20781;-54
2022/09/08 06:45:25;;;;;;;4.03;3.53;;;18.10;99.90;;;;;;5096320;28;20473;-48
2022/09/08 06:48:28;;;;;;;6.17;3.97;;;18.10;99.90;;;;;;5096198;28;20476;-53
2022/09/08 06:51:14;;;;;;;6.70;3.97;;;18.10;99.90;;;;;;5096408;28;20816;-50
2022/09/08 06:53:45;;;;;;;8.50;3.27;;;18.20;99.90;;;;;;5095917;28;20421;-49
2022/09/08 06:56:24;;;;;;;4.90;3.27;;;18.20;99.90;;;;;;5095655;28;20429;-52
2022/09/08 06:58:57;;;;;;;9.77;3.70;;;18.30;99.90;;;;;;5095814;28;20817;-53
2022/09/08 07:01:31;;;;;;;6.03;3.77;;;18.30;99.90;;;;;;5095782;28;20422;-50
2022/09/08 07:04:18;;;;;;;4.30;3.47;;;18.30;99.90;;;;;;5095463;28;20473;-47
2022/09/08 07:06:54;;;;;;;3.40;3.10;;;18.30;99.90;;;;;;5095857;28;20468;-50
2022/09/08 07:09:29;;;;;;;5.90;3.57;;;18.40;99.90;;;;;;5096037;28;20436;-50
2022/09/08 07:12:08;;;;;;;7.23;4.00;;;18.40;99.90;;;;;;5095458;28;20882;-48
2022/09/08 07:14:46;;;;;;;9.10;3.67;;;18.50;99.90;;;;;;5096048;28;20451;-53
2022/09/08 07:17:20;;;;;;;5.73;4.17;;;18.50;99.90;;;;;;5095757;28;20449;-48
2022/09/08 07:19:49;;;;;;;9.00;4.10;;;18.50;99.90;;;;;;5096014;28;20425;-50
2022/09/08 07:22:34;;;;;;;7.60;4.30;;;18.50;99.90;;;;;;5095734;28;20484;-53
2022/09/08 07:25:14;;;;;;;8.30;4.43;;;18.70;99.90;;;;;;5096000;28;20519;-50
2022/09/08 07:27:42;;;;;;;7.70;4.83;;;18.80;99.90;;;;;;5095318;28;20590;-51
2022/09/08 07:30:15;;;;;;;5.17;4.50;;;18.80;99.90;;;;;;5095687;28;20425;-49
2022/09/08 07:32:45;;;;;;;7.63;4.13;;;18.90;99.90;;;;;;5095651;28;20487;-48
2022/09/08 07:35:20;;;;;;;7.57;3.97;;;19.00;99.90;;;;;;5095384;28;20925;-51
2022/09/08 07:37:51;;;;;;;5.80;4.60;;;19.00;99.90;;;;;;5095533;28;20425;-44
2022/09/08 07:40:20;;;;;;;4.93;3.60;;;19.00;99.90;;;;;;5095406;28;20472;-50
2022/09/08 07:42:50;;;;;;;7.80;3.87;;;19.10;99.90;;;;;;5095056;28;20457;-47
2022/09/08 07:45:17;;;;;;;5.40;3.30;;;19.00;99.90;;;;;;5095304;28;20820;-51
2022/09/08 07:47:55;;;;;;;7.27;4.83;;;19.00;99.90;;;;;;5095181;28;20504;-50
2022/09/08 07:50:53;;;;;;;9.53;3.97;;;19.10;99.90;;;;;;5095135;28;20507;-50
2022/09/08 07:53:31;;;;;;;6.50;4.33;;;19.20;99.90;;;;;;5094931;28;20534;-48
2022/09/08 07:56:07;;;;;;;6.20;4.27;;;19.30;99.90;;;;;;5098539;28;20932;-48
2022/09/08 07:58:44;;;;;;;8.60;4.53;;;19.50;99.90;;;;;;5098744;28;20460;-48
2022/09/08 08:01:19;;;;;;;11.03;5.10;;;19.60;99.90;;;;;;5098508;28;20437;-51
2022/09/08 08:03:56;;;;;;;6.53;4.80;;;19.80;99.90;;;;;;5098441;28;20453;-51
2022/09/08 08:06:35;;;;;;;6.40;4.33;;;19.90;99.90;;;;;;5098780;28;20473;-51
2022/09/08 08:09:12;;;;;;;7.40;4.00;;;19.90;99.90;;;;;;5098782;28;20446;-50
2022/09/08 08:11:47;;;;;;;6.77;4.07;;;19.90;99.90;;;;;;5098528;28;20469;-50
2022/09/08 08:14:24;;;;;;;6.50;3.90;;;19.80;99.90;;;;;;5098554;28;20420;-52
2022/09/08 08:17:01;;;;;;;5.20;3.40;;;19.70;99.90;;;;;;5098545;28;20472;-48
2022/09/08 08:19:46;;;;;;;6.30;3.60;;;19.70;99.90;;;;;;5098446;28;20725;-49
2022/09/08 08:22:19;;;;;;;8.33;3.97;;;19.60;99.90;;;;;;5097876;28;20890;-52
2022/09/08 08:24:57;;;;;;;8.43;3.73;;;19.60;99.90;;;;;;5098458;28;20452;-51
2022/09/08 08:27:29;;;;;;;5.10;3.50;;;19.50;99.90;;;;;;5098373;28;20469;-50
2022/09/08 08:30:07;;;;;;;6.27;4.07;;;19.40;99.90;;;;;;5098284;28;20859;-49
2022/09/08 08:32:39;;;;;;;8.37;3.80;;;19.40;99.90;;;;;;5097750;28;20433;-51
2022/09/08 08:35:14;;;;;;;8.10;3.87;;;19.30;99.90;;;;;;5097788;28;20465;-54
2022/09/08 08:37:42;;;;;;;7.43;4.00;;;19.20;99.90;;;;;;5097846;28;20417;-52
2022/09/08 08:40:27;;;;;;;6.40;3.93;;;19.20;99.90;;;;;;5097639;28;20445;-55
2022/09/08 08:43:18;;;;;;;6.30;3.57;;;19.20;99.90;;;;;;5098109;28;20874;-46
2022/09/08 08:45:56;;;;;;;7.10;4.40;;;19.20;99.90;;;;;;5097567;28;20445;-51
2022/09/08 08:48:41;;;;;;;5.43;3.63;;;19.20;99.90;;;;;;5098003;28;20485;-52
2022/09/08 08:51:30;;;;;;;6.83;4.17;;;19.10;99.90;;;;;;5098138;28;20454;-51
2022/09/08 08:54:11;;;;;;;6.17;4.30;;;19.10;99.90;;;;;;5097562;28;20446;-53
2022/09/08 08:56:46;;;;;;;6.53;4.30;;;19.00;99.90;;;;;;5097719;28;20422;-47
2022/09/08 08:59:45;;;;;;;8.37;5.10;;;19.00;99.90;;;;;;5097717;28;20884;-50
2022/09/08 09:02:26;;;;;;;9.20;4.63;;;18.90;99.90;;;;;;5097667;28;21171;-50
2022/09/08 09:05:32;;;;;;;10.57;5.10;;;18.90;99.90;;;;;;5097318;28;20893;-51
2022/09/08 09:08:20;;;;;;;12.97;5.17;;;19.00;99.90;;;;;;5097381;28;20507;-51
2022/09/08 09:11:01;;;;;;;7.33;4.23;;;19.00;99.90;;;;;;5097618;28;20473;-50
2022/09/08 09:14:01;;;;;;;7.50;4.63;;;19.10;99.90;;;;;;5097721;28;20421;-48
2022/09/08 09:17:11;;;;;;;8.33;5.30;;;19.20;99.90;;;;;;5094202;28;20470;-49
2022/09/08 09:20:07;;;;;;;8.47;4.83;;;19.20;99.90;;;;;;5097285;28;20451;-48
2022/09/08 09:22:44;;;;;;;8.00;5.40;;;19.20;99.90;;;;;;5096580;28;20853;-50
2022/09/08 09:25:19;;;;;;;7.37;5.33;;;19.20;99.90;;;;;;5097430;28;20441;-43
2022/09/08 09:27:51;;;;;;;8.70;4.27;;;19.30;99.90;;;;;;5096762;28;20522;-46
2022/09/08 09:30:25;;;;;;;11.63;4.57;;;19.30;99.90;;;;;;5097121;28;20721;-49
2022/09/08 09:33:26;;;;;;;6.00;4.60;;;19.30;99.90;;;;;;5097255;28;20891;-50
2022/09/08 09:36:19;;;;;;;6.17;4.87;;;19.30;99.90;;;;;;5097102;28;20908;-48
2022/09/08 09:39:27;;;;;;;9.60;4.20;;;19.30;99.90;;;;;;5096970;28;20447;-49
2022/09/08 09:42:18;;;;;;;10.20;5.23;;;19.40;99.90;;;;;;5096499;28;20448;-48
2022/09/08 09:45:04;;;;;;;13.90;4.97;;;19.40;99.90;;;;;;5096687;28;20454;-50
2022/09/08 09:48:04;;;;;;;7.80;5.30;;;19.40;99.90;;;;;;5096309;28;20526;-51
2022/09/08 09:50:53;;;;;;;14.73;6.37;;;19.40;99.90;;;;;;5071327;28;20459;-54
2022/09/08 09:53:41;;;;;;;7.53;5.07;;;19.40;99.90;;;;;;5096480;28;20461;-57
2022/09/08 09:56:49;;;;;;;9.23;5.90;;;19.40;99.90;;;;;;5096718;28;20779;-50
2022/09/08 09:59:38;;;;;;;8.80;5.37;;;19.40;99.90;;;;;;5096418;28;20469;-48
2022/09/08 10:02:29;;;;;;;7.00;5.07;;;19.40;99.90;;;;;;5096549;28;20473;-50
2022/09/08 10:05:39;;;;;;;9.40;5.70;;;19.40;99.90;;;;;;5096417;28;20876;-52
2022/09/08 10:08:40;;;;;;;6.70;5.20;;;19.40;99.90;;;;;;5071029;28;20488;-52
2022/09/08 10:11:34;;;;;;;7.10;5.03;;;19.50;99.90;;;;;;5096305;28;20497;-52
2022/09/08 10:14:22;;;;;;;8.67;5.40;;;19.40;99.90;;;;;;5096480;28;20866;-51
2022/09/08 10:17:22;;;;;;;10.87;5.60;;;19.40;99.90;;;;;;5095748;28;20560;-51
2022/09/08 10:20:23;;;;;;;7.07;5.13;;;19.40;99.90;;;;;;5087184;28;20457;-52
2022/09/08 10:23:22;;;;;;;7.50;5.37;;;19.40;99.90;;;;;;5096136;28;20894;-53
2022/09/08 10:26:19;;;;;;;14.13;5.83;;;19.40;99.90;;;;;;5095825;28;20432;-52
2022/09/08 10:29:09;;;;;;;9.00;5.47;;;19.30;99.90;;;;;;5074291;28;20485;-46
2022/09/08 10:32:14;;;;;;;9.50;5.10;;;19.20;99.90;;;;;;5096049;28;20461;-47
2022/09/08 10:35:19;;;;;;;8.40;5.83;;;19.20;99.90;;;;;;5044951;28;20442;-50
2022/09/08 10:38:17;;;;;;;9.20;5.80;;;19.10;99.90;;;;;;4994179;28;20470;-53
2022/09/08 10:40:59;;;;;;;8.40;5.43;;;19.10;99.90;;;;;;5095917;28;20528;-50
2022/09/08 10:44:04;;;;;;;11.63;6.40;;;19.00;99.90;;;;;;5095650;28;20465;-52
2022/09/08 10:46:58;;;;;;;8.23;6.13;;;18.80;99.90;;;;;;5095662;28;20502;-52
2022/09/08 10:49:54;;;;;;;8.73;6.20;;;18.50;99.90;;;;;;5095713;28;20465;-52
2022/09/08 10:52:31;;;;;;;12.30;7.47;;;18.20;99.90;;;;;;5095841;28;20442;-50
2022/09/08 10:55:28;;;;;;;11.40;6.77;;;18.00;99.90;;;;;;5095991;28;20465;-47
2022/09/08 10:58:21;;;;;;;8.90;6.70;;;17.80;99.90;;;;;;5080021;28;20453;-48
2022/09/08 11:01:04;;;;;;;14.00;7.20;;;17.70;99.90;;;;;;5078848;28;20788;-52
2022/09/08 11:03:53;;;;;;;10.17;7.20;;;17.60;99.90;;;;;;5096773;28;20422;-51
2022/09/08 11:06:32;;;;;;;8.07;6.53;;;17.50;99.90;;;;;;5095950;28;20491;-53
2022/09/08 11:09:32;;;;;;;10.60;7.70;;;17.40;99.90;;;;;;5096091;28;20942;-53
2022/09/08 11:12:28;;;;;;;14.27;7.43;;;17.40;99.90;;;;;;5096143;28;20461;-45
2022/09/08 11:15:27;;;;;;;13.77;7.77;;;17.40;99.90;;;;;;5095886;28;20485;-54
2022/09/08 11:18:12;;;;;;;10.70;8.10;;;17.40;99.90;;;;;;5095801;28;20461;-48
2022/09/08 11:20:44;;;;;;;9.10;7.40;;;17.30;99.90;;;;;;5096002;28;20432;-47
2022/09/08 11:23:24;;;;;;;11.27;7.90;;;17.30;99.90;;;;;;5096110;28;20469;-52
2022/09/08 11:26:09;;;;;;;9.97;7.47;;;17.40;99.90;;;;;;5095675;28;20440;-46
2022/09/08 11:28:51;;;;;;;12.37;8.13;;;17.50;99.90;;;;;;5095478;28;20489;-49
2022/09/08 11:31:33;;;;;;;12.37;9.37;;;17.60;99.90;;;;;;5100028;28;20425;-49
2022/09/08 11:34:41;;;;;;;11.07;8.43;;;17.60;99.90;;;;;;5099782;28;20496;-49
2022/09/08 11:37:47;;;;;;;13.47;8.40;;;17.70;99.90;;;;;;5096673;28;20472;-52
2022/09/08 11:40:43;;;;;;;11.20;8.20;;;17.80;99.90;;;;;;5099259;28;20541;-53
2022/09/08 11:43:28;;;;;;;15.93;8.90;;;17.80;99.90;;;;;;5099437;28;20451;-51
2022/09/08 11:46:08;;;;;;;12.20;8.97;;;17.80;99.90;;;;;;5098892;28;20465;-52
2022/09/08 11:49:06;;;;;;;17.13;9.67;;;17.80;99.90;;;;;;5099099;28;20465;-52
2022/09/08 11:51:47;;;;;;;13.87;9.40;;;17.90;99.90;;;;;;5098926;28;20957;-50
2022/09/08 11:54:31;;;;;;;13.57;9.10;;;17.90;99.90;;;;;;5099336;28;20456;-51
2022/09/08 11:57:31;;;;;;;17.27;11.50;;;18.00;99.90;;;;;;5099096;28;20828;-51
2022/09/08 12:00:14;;;;;;;20.07;10.97;;;18.00;99.90;;;;;;5080210;28;20529;-51
2022/09/08 12:03:08;;;;;;;15.27;10.77;;;18.10;99.90;;;;;;5098953;28;20465;-48
2022/09/08 12:05:46;;;;;;;15.17;10.43;;;18.10;99.90;;;;;;5098788;28;20453;-45
2022/09/08 12:08:38;;;;;;;12.63;9.13;;;18.20;99.90;;;;;;5098884;28;20500;-47
2022/09/08 12:11:18;;;;;;;18.73;10.77;;;18.20;99.90;;;;;;5098673;28;20449;-46
2022/09/08 12:13:52;;;;;;;14.03;8.77;;;18.20;99.90;;;;;;5099009;28;20524;-48
2022/09/08 12:16:46;;;;;;;15.23;9.23;;;18.30;99.90;;;;;;5098676;28;20429;-50
2022/09/08 12:19:31;;;;;;;15.83;9.70;;;18.30;99.90;;;;;;5098493;28;20484;-52
2022/09/08 12:22:18;;;;;;;13.30;8.87;;;18.30;99.90;;;;;;5098544;28;20437;-50
2022/09/08 12:25:12;;;;;;;15.30;8.83;;;18.30;99.90;;;;;;5098412;28;20476;-49
2022/09/08 12:27:57;;;;;;;11.80;9.87;;;18.40;99.90;;;;;;5097940;28;20956;-51
2022/09/08 12:30:38;;;;;;;11.90;8.80;;;18.50;99.90;;;;;;5097871;28;20473;-50
2022/09/08 12:33:21;;;;;;;15.60;9.73;;;18.60;99.90;;;;;;5098736;28;20445;-49
2022/09/08 12:35:53;;;;;;;13.30;8.97;;;18.70;99.90;;;;;;5098216;28;20572;-49
2022/09/08 12:38:51;;;;;;;15.83;9.20;;;18.80;99.90;;;;;;5098789;28;20754;-49
2022/09/08 12:41:32;;;;;;;13.43;9.50;;;18.90;99.90;;;;;;5097319;28;20933;-48
2022/09/08 12:44:10;;;;;;;11.40;7.80;;;19.00;99.90;;;;;;5098086;28;20745;-46
2022/09/08 12:47:01;;;;;;;13.73;9.17;;;19.00;99.90;;;;;;5097533;28;20567;-48
2022/09/08 12:49:57;;;;;;;12.30;8.80;;;19.10;99.90;;;;;;5094440;28;20473;-52
2022/09/08 12:52:38;;;;;;;11.33;8.20;;;19.10;99.90;;;;;;5098026;28;20469;-53
2022/09/08 12:55:18;;;;;;;12.33;8.13;;;19.20;99.90;;;;;;5098019;28;20452;-48
2022/09/08 12:57:57;;;;;;;13.00;9.27;;;19.20;99.90;;;;;;5097544;28;20919;-48
2022/09/08 13:00:29;;;;;;;15.40;8.57;;;19.30;99.90;;;;;;5097722;28;20830;-51
2022/09/08 13:03:34;;;;;;;12.87;8.97;;;19.30;99.90;;;;;;5097545;28;20462;-53
2022/09/08 13:06:29;;;;;;;16.40;8.70;;;19.40;99.90;;;;;;5072168;28;20441;-50
2022/09/08 13:08:59;;;;;;;11.73;8.50;;;19.50;99.90;;;;;;5097249;28;20492;-51
2022/09/08 13:12:04;;;;;;;13.97;9.07;;;19.60;99.90;;;;;;5097254;28;20442;-48
2022/09/08 13:14:47;;;;;;;16.83;8.73;;;19.70;99.90;;;;;;5067170;28;20480;-48
2022/09/08 13:17:19;;;;;;;14.80;9.00;;;19.80;99.90;;;;;;5097364;28;20451;-49
2022/09/08 13:20:16;;;;;;;17.27;9.03;;;19.90;99.90;;;;;;5097238;28;20559;-45
2022/09/08 13:22:48;;;;;;;12.60;9.80;;;20.00;99.90;;;;;;5097201;28;20498;-49
2022/09/08 13:25:21;;;;;;;12.50;9.10;;;20.10;99.90;;;;;;5097177;28;20944;-50
2022/09/08 13:28:07;;;;;;;18.43;13.37;;;20.20;99.90;;;;;;5097022;28;20425;-52
2022/09/08 13:30:42;;;;;;;13.10;9.73;;;20.20;99.90;;;;;;5097058;28;20803;-49
2022/09/08 13:33:26;;;;;;;13.33;10.57;;;20.20;99.90;;;;;;5096817;28;20720;-53
2022/09/08 13:36:15;;;;;;;13.07;9.00;;;20.10;99.90;;;;;;5096774;28;20561;-47
2022/09/08 13:39:11;;;;;;;14.90;9.90;;;20.10;99.90;;;;;;5096899;28;20487;-53